Time;durP1;ratioP1;P1;durP2;ratioP2;P2;SDS_P1;SDS_P2;PMS_P1;PMS_P2;Temp;Humidity;BMP_temperature;BMP_pressure;BME280_temperature;BME280_humidity;BME280_pressure;Samples;Min_cycle;Max_cycle;Signal;HPM_P1;HPM_P2
2022/11/15 00:00:24;;;;;;;5.68;3.80;;;14.90;80.40;;;;;;5059220;28;20045;-82
2022/11/15 00:02:49;;;;;;;7.30;4.40;;;14.90;80.40;;;;;;5057201;28;20043;-81
2022/11/15 00:05:15;;;;;;;7.28;4.85;;;14.90;80.40;;;;;;5057983;28;20032;-81
2022/11/15 00:07:40;;;;;;;6.13;4.10;;;14.90;80.40;;;;;;5058945;28;20031;-80
2022/11/15 00:10:06;;;;;;;6.47;4.55;;;14.90;80.30;;;;;;5077409;28;20114;-81
2022/11/15 00:12:32;;;;;;;6.10;4.13;;;14.90;80.20;;;;;;5077008;28;20108;-82
2022/11/15 00:14:57;;;;;;;6.55;4.07;;;15.10;80.20;;;;;;5068383;28;20078;-79
2022/11/15 00:17:23;;;;;;;6.97;4.15;;;15.00;80.10;;;;;;5056860;28;20025;-82
2022/11/15 00:19:49;;;;;;;6.88;4.32;;;15.00;80.00;;;;;;5070307;28;20096;-81
2022/11/15 00:22:14;;;;;;;7.00;4.30;;;15.00;80.00;;;;;;5078341;28;20022;-81
2022/11/15 00:24:40;;;;;;;7.20;4.75;;;15.00;80.00;;;;;;5060037;28;20463;-81
2022/11/15 00:27:05;;;;;;;6.53;4.05;;;15.00;80.00;;;;;;5056977;28;20068;-81
2022/11/15 00:29:31;;;;;;;6.38;4.25;;;15.00;80.10;;;;;;5057841;28;20397;-81
2022/11/15 00:31:56;;;;;;;6.03;3.80;;;15.00;80.10;;;;;;5057139;28;20369;-80
2022/11/15 00:34:22;;;;;;;6.57;4.10;;;14.90;80.20;;;;;;5057860;28;20029;-80
2022/11/15 00:36:47;;;;;;;6.75;4.22;;;14.90;80.30;;;;;;5055891;28;20025;-80
2022/11/15 00:39:13;;;;;;;6.30;4.03;;;14.90;80.80;;;;;;5057169;28;20029;-82
2022/11/15 00:41:38;;;;;;;6.18;4.07;;;14.90;80.40;;;;;;5056564;28;20476;-81
2022/11/15 00:44:04;;;;;;;6.38;4.07;;;14.90;80.40;;;;;;5057203;28;20017;-81
2022/11/15 00:46:29;;;;;;;6.55;4.20;;;14.90;80.40;;;;;;5065759;28;20033;-81
2022/11/15 00:48:55;;;;;;;6.93;4.50;;;14.90;80.50;;;;;;5079318;28;20040;-81
2022/11/15 00:51:20;;;;;;;6.40;4.38;;;14.90;80.50;;;;;;5078909;28;20028;-81
2022/11/15 00:53:46;;;;;;;7.32;4.20;;;14.90;80.50;;;;;;5072773;28;20024;-80
2022/11/15 00:56:11;;;;;;;6.18;4.05;;;14.90;80.50;;;;;;5060194;28;20029;-80
2022/11/15 00:58:37;;;;;;;6.00;4.30;;;14.90;80.50;;;;;;5058692;28;20029;-82
2022/11/15 01:01:11;;;;;;;7.28;4.28;;;14.90;80.60;;;;;;5059000;28;20389;-81
2022/11/15 01:03:38;;;;;;;6.40;3.90;;;14.90;80.60;;;;;;5059258;28;20388;-82
2022/11/15 01:06:04;;;;;;;6.68;4.20;;;14.90;80.60;;;;;;5055806;28;20473;-82
2022/11/15 01:08:29;;;;;;;6.80;4.30;;;14.90;80.60;;;;;;5057346;28;20112;-82
2022/11/15 01:11:00;;;;;;;6.32;3.90;;;14.90;80.60;;;;;;5076592;28;20060;-81
2022/11/15 01:13:28;;;;;;;6.50;4.07;;;14.90;80.60;;;;;;5078750;28;20479;-80
2022/11/15 01:15:54;;;;;;;5.97;4.00;;;14.90;80.60;;;;;;5069061;28;20075;-80
2022/11/15 01:18:19;;;;;;;6.15;3.83;;;14.90;80.60;;;;;;5077775;28;20021;-81
2022/11/15 01:20:45;;;;;;;5.45;3.63;;;14.90;80.70;;;;;;5080326;28;20032;-82
2022/11/15 01:23:10;;;;;;;6.25;4.00;;;14.90;80.60;;;;;;5080974;28;20039;-81
2022/11/15 01:25:36;;;;;;;6.20;4.00;;;14.90;80.50;;;;;;5069896;28;20032;-81
2022/11/15 01:28:02;;;;;;;6.25;4.07;;;14.90;80.40;;;;;;5059195;28;20124;-81
2022/11/15 01:30:27;;;;;;;5.90;3.75;;;14.90;80.30;;;;;;5060301;28;20025;-81
2022/11/15 01:32:53;;;;;;;6.55;4.10;;;14.90;80.20;;;;;;5056190;28;20392;-80
2022/11/15 01:35:18;;;;;;;6.00;4.00;;;15.00;80.20;;;;;;5065734;28;20035;-79
2022/11/15 01:37:44;;;;;;;6.40;3.83;;;15.00;80.10;;;;;;5079191;28;20479;-81
2022/11/15 01:40:10;;;;;;;6.05;3.80;;;15.00;80.10;;;;;;5075730;28;20028;-78
2022/11/15 01:42:35;;;;;;;6.20;4.03;;;14.90;80.10;;;;;;5078274;28;20399;-82
2022/11/15 01:45:01;;;;;;;5.85;3.90;;;14.90;80.20;;;;;;5079694;28;20033;-80
2022/11/15 01:47:37;;;;;;;6.00;4.07;;;15.00;80.40;;;;;;5079521;28;20021;-81
2022/11/15 01:50:09;;;;;;;5.68;3.45;;;14.90;80.40;;;;;;5078368;28;20024;-81
2022/11/15 01:52:37;;;;;;;6.00;4.00;;;14.90;80.50;;;;;;5077980;28;20037;-81
2022/11/15 01:55:24;;;;;;;6.75;4.10;;;14.90;80.60;;;;;;5068493;28;20025;-81
2022/11/15 01:57:53;;;;;;;5.90;3.65;;;14.90;80.60;;;;;;5057597;28;20027;-81
2022/11/15 02:00:18;;;;;;;5.47;3.45;;;14.90;80.70;;;;;;5056109;28;20027;-80
2022/11/15 02:02:44;;;;;;;5.80;3.90;;;14.90;80.70;;;;;;5072822;28;20029;-81
2022/11/15 02:05:10;;;;;;;5.72;3.83;;;14.90;80.70;;;;;;5078403;28;20036;-81
2022/11/15 02:07:37;;;;;;;5.53;3.80;;;14.90;80.80;;;;;;5078303;28;20028;-80
2022/11/15 02:10:16;;;;;;;6.40;4.00;;;14.90;80.80;;;;;;5073434;28;20479;-80
2022/11/15 02:12:42;;;;;;;5.95;3.55;;;14.90;80.80;;;;;;5076641;28;20497;-80
2022/11/15 02:15:09;;;;;;;5.53;3.53;;;14.80;80.80;;;;;;5077871;22;20049;-82
2022/11/15 02:17:56;;;;;;;5.47;3.67;;;14.80;80.80;;;;;;5035204;28;20071;-81
2022/11/15 02:20:40;;;;;;;5.82;3.95;;;14.80;80.80;;;;;;5033416;28;20037;-82
2022/11/15 02:23:06;;;;;;;6.60;4.00;;;14.80;80.80;;;;;;5033558;28;20026;-81
2022/11/15 02:25:38;;;;;;;5.82;3.72;;;14.80;80.80;;;;;;5044642;28;20120;-83
2022/11/15 02:28:20;;;;;;;6.10;3.90;;;14.80;80.80;;;;;;5053466;28;20029;-83
2022/11/15 02:30:53;;;;;;;5.53;3.45;;;14.80;80.90;;;;;;5055830;28;20017;-84
2022/11/15 02:33:37;;;;;;;6.50;3.58;;;14.80;80.80;;;;;;5060048;28;20028;-84
2022/11/15 02:36:14;;;;;;;6.32;3.72;;;14.80;80.90;;;;;;5038096;28;20033;-84
2022/11/15 02:38:54;;;;;;;5.90;3.50;;;14.90;80.90;;;;;;5039240;28;20021;-83
2022/11/15 02:41:46;;;;;;;5.75;3.75;;;14.80;80.80;;;;;;5036936;28;20030;-83
2022/11/15 02:44:20;;;;;;;6.32;3.47;;;14.90;80.70;;;;;;5044980;28;20016;-83
2022/11/15 02:47:14;;;;;;;5.40;3.33;;;14.90;80.60;;;;;;5056838;28;20083;-84
2022/11/15 02:49:46;;;;;;;6.10;3.63;;;14.90;80.50;;;;;;5056291;28;20032;-85
2022/11/15 02:52:16;;;;;;;;;;;14.90;80.40;;;;;;5057986;28;20025;-82
2022/11/15 02:54:41;;;;;;;5.60;3.60;;;15.00;80.40;;;;;;5057079;28;19905;-83
2022/11/15 02:57:16;;;;;;;5.88;3.58;;;14.90;80.30;;;;;;5055942;28;20024;-84
2022/11/15 03:00:00;;;;;;;5.60;3.40;;;14.90;80.40;;;;;;5055305;28;20401;-83
2022/11/15 03:03:07;;;;;;;5.65;3.40;;;14.90;80.60;;;;;;5054624;28;20028;-84
2022/11/15 03:05:46;;;;;;;6.07;3.70;;;14.90;80.70;;;;;;5056915;28;20052;-83
2022/11/15 03:08:29;;;;;;;5.70;3.40;;;14.90;80.70;;;;;;5054704;28;20535;-82
2022/11/15 03:11:18;;;;;;;5.30;3.20;;;14.80;81.30;;;;;;5049022;28;20033;-83
2022/11/15 03:13:53;;;;;;;6.30;3.78;;;14.80;80.80;;;;;;5054835;28;20025;-82
2022/11/15 03:16:21;;;;;;;5.97;3.63;;;14.80;80.90;;;;;;5053674;28;20060;-82
2022/11/15 03:19:18;;;;;;;5.85;3.42;;;14.80;80.90;;;;;;5054218;28;20020;-81
2022/11/15 03:21:46;;;;;;;5.75;3.15;;;14.80;80.90;;;;;;5042996;28;20044;-83
2022/11/15 03:24:14;;;;;;;5.97;3.70;;;14.80;81.00;;;;;;5055297;28;20029;-81
2022/11/15 03:26:43;;;;;;;5.70;3.58;;;14.80;81.00;;;;;;5053383;28;20025;-82
2022/11/15 03:29:14;;;;;;;6.10;3.33;;;14.80;81.00;;;;;;5053436;28;20179;-82
2022/11/15 03:31:48;;;;;;;5.82;3.55;;;14.80;81.00;;;;;;5054256;28;20028;-82
2022/11/15 03:34:26;;;;;;;5.45;3.30;;;14.80;81.00;;;;;;5053163;28;20035;-83
2022/11/15 03:36:52;;;;;;;5.80;3.30;;;14.80;81.10;;;;;;5053042;28;20025;-82
2022/11/15 03:39:20;;;;;;;5.07;3.38;;;14.80;81.00;;;;;;5054496;28;20111;-82
2022/11/15 03:42:11;;;;;;;6.07;3.40;;;14.80;81.10;;;;;;5052735;28;20048;-83
2022/11/15 03:44:48;;;;;;;5.45;3.35;;;14.80;81.10;;;;;;5052764;28;20040;-83
2022/11/15 03:47:38;;;;;;;5.55;3.40;;;14.80;81.10;;;;;;5049808;28;20029;-81
2022/11/15 03:50:18;;;;;;;5.10;3.25;;;14.80;81.10;;;;;;5034739;28;20026;-81
2022/11/15 03:52:45;;;;;;;5.75;3.55;;;14.80;81.10;;;;;;5032793;28;20030;-82
2022/11/15 03:55:14;;;;;;;6.53;3.75;;;14.90;81.20;;;;;;5050148;28;20029;-82
2022/11/15 03:57:40;;;;;;;4.97;3.20;;;14.80;81.00;;;;;;5052698;28;20032;-82
2022/11/15 04:00:07;;;;;;;6.28;3.78;;;14.80;80.90;;;;;;5052765;28;20029;-82
2022/11/15 04:02:32;;;;;;;5.75;3.58;;;14.90;80.80;;;;;;5068334;28;20029;-83
2022/11/15 04:04:58;;;;;;;5.30;3.30;;;14.90;80.80;;;;;;5051815;28;20032;-82
2022/11/15 04:07:23;;;;;;;5.57;3.50;;;14.90;80.70;;;;;;5053693;28;20029;-82
2022/11/15 04:10:05;;;;;;;5.20;3.25;;;14.90;80.70;;;;;;5052119;28;20455;-82
2022/11/15 04:12:36;;;;;;;6.03;3.60;;;14.90;80.70;;;;;;5051646;28;20510;-82
2022/11/15 04:15:07;;;;;;;5.68;3.13;;;14.90;80.80;;;;;;5053474;28;20047;-81
2022/11/15 04:17:43;;;;;;;;;;;14.90;81.50;;;;;;5052481;28;20124;-82
2022/11/15 04:26:12;;;;;;;5.25;3.20;;;14.80;81.20;;;;;;5037473;28;20503;-81
2022/11/15 04:29:33;;;;;;;7.13;3.58;;;14.90;81.30;;;;;;5069632;28;20120;-82
2022/11/15 04:31:23;;;;;;;5.43;3.30;;;14.80;81.30;;;;;;5076604;28;20103;-81
2022/11/15 04:33:49;;;;;;;7.70;3.25;;;14.80;81.10;;;;;;5065935;28;20064;-82
2022/11/15 04:38:58;;;;;;;5.65;3.05;;;14.80;81.10;;;;;;5057249;28;20036;-83
2022/11/15 04:41:24;;;;;;;6.85;3.15;;;14.90;81.10;;;;;;5055093;28;20025;-81
2022/11/15 04:43:50;;;;;;;7.97;3.10;;;14.90;81.20;;;;;;5055420;28;20017;-82
2022/11/15 04:46:15;;;;;;;7.53;3.40;;;14.90;81.30;;;;;;5055660;28;20071;-81
2022/11/15 04:48:41;;;;;;;6.93;3.58;;;14.90;81.30;;;;;;5055213;28;20013;-82
2022/11/15 04:51:06;;;;;;;6.78;3.05;;;14.90;81.20;;;;;;5059659;28;20020;-81
2022/11/15 04:53:32;;;;;;;6.78;3.03;;;15.00;81.30;;;;;;5075293;28;20031;-81
2022/11/15 04:55:57;;;;;;;8.50;3.30;;;15.00;81.40;;;;;;5075422;28;20067;-82
2022/11/15 04:58:23;;;;;;;6.88;3.10;;;15.10;82.40;;;;;;5074646;28;20043;-81
2022/11/15 05:00:48;;;;;;;7.85;3.35;;;15.10;81.90;;;;;;5058468;28;20036;-81
2022/11/15 05:05:59;;;;;;;5.65;2.80;;;15.20;82.10;;;;;;5072636;28;20067;-82
2022/11/15 05:08:25;;;;;;;6.65;3.10;;;15.20;82.10;;;;;;5075629;28;20112;-84
2022/11/15 05:10:50;;;;;;;5.78;2.97;;;15.20;82.10;;;;;;5063508;28;20016;-85
2022/11/15 05:13:16;;;;;;;6.78;3.20;;;15.30;82.10;;;;;;5082134;28;20130;-84
2022/11/15 05:15:42;;;;;;;6.45;3.22;;;15.30;81.90;;;;;;5074888;28;20404;-88
2022/11/15 05:18:07;;;;;;;8.05;3.42;;;15.30;81.80;;;;;;5054811;28;20035;-81
2022/11/15 05:20:33;;;;;;;7.30;3.05;;;15.30;81.70;;;;;;5064513;28;21048;-79
2022/11/15 05:22:58;;;;;;;6.75;3.45;;;15.30;81.60;;;;;;5050320;28;20021;-81
2022/11/15 05:25:24;;;;;;;6.55;3.15;;;15.30;81.60;;;;;;5049210;28;20111;-81
2022/11/15 05:27:50;;;;;;;6.43;3.30;;;15.30;81.70;;;;;;5070558;28;20025;-80
2022/11/15 05:30:16;;;;;;;6.53;2.85;;;15.30;81.80;;;;;;5053074;28;20044;-80
2022/11/15 05:32:42;;;;;;;6.38;3.00;;;15.30;81.90;;;;;;5051313;28;20043;-80
2022/11/15 05:35:13;;;;;;;6.65;3.40;;;15.30;82.00;;;;;;5050906;28;20033;-80
2022/11/15 05:37:39;;;;;;;6.78;3.13;;;15.40;82.00;;;;;;5052445;28;20059;-80
2022/11/15 05:40:05;;;;;;;6.22;3.10;;;15.20;82.00;;;;;;5051103;28;20037;-79
2022/11/15 05:42:30;;;;;;;7.55;3.13;;;15.20;82.00;;;;;;5052395;28;20078;-79
2022/11/15 05:44:57;;;;;;;5.80;3.03;;;15.20;82.10;;;;;;5051456;28;20033;-80
2022/11/15 05:47:27;;;;;;;6.13;2.90;;;15.20;82.10;;;;;;5047533;28;20033;-81
2022/11/15 05:49:53;;;;;;;5.88;2.83;;;15.20;82.10;;;;;;5033206;28;20037;-80
2022/11/15 05:52:24;;;;;;;6.38;3.17;;;15.20;82.20;;;;;;5033191;28;20026;-80
2022/11/15 05:54:50;;;;;;;5.95;3.08;;;15.20;82.10;;;;;;5040782;28;20036;-81
2022/11/15 05:57:16;;;;;;;7.28;3.40;;;15.20;82.10;;;;;;5050808;28;20412;-80
2022/11/15 05:59:43;;;;;;;5.72;2.83;;;15.20;82.20;;;;;;5052802;28;20087;-80
2022/11/15 06:02:09;;;;;;;6.20;3.25;;;15.20;82.20;;;;;;5052122;28;20836;-80
2022/11/15 06:04:35;;;;;;;5.55;2.90;;;15.20;82.20;;;;;;5052955;28;20118;-82
2022/11/15 06:07:01;;;;;;;6.20;3.20;;;15.20;82.20;;;;;;5053111;28;20072;-78
2022/11/15 06:09:26;;;;;;;8.27;3.38;;;15.10;82.10;;;;;;5061097;28;20732;-79
2022/11/15 06:11:52;;;;;;;6.88;3.10;;;15.20;82.20;;;;;;5052408;28;20040;-80
2022/11/15 06:14:18;;;;;;;6.28;3.10;;;15.20;82.20;;;;;;5046765;28;20028;-79
2022/11/15 06:16:43;;;;;;;6.60;3.15;;;15.10;82.40;;;;;;5048851;28;20120;-80
2022/11/15 06:19:09;;;;;;;7.35;3.05;;;15.20;82.50;;;;;;5050191;28;20120;-79
2022/11/15 06:21:34;;;;;;;7.72;3.97;;;15.20;82.70;;;;;;5046746;28;20086;-77
2022/11/15 06:24:00;;;;;;;5.53;3.00;;;15.20;82.80;;;;;;5050336;28;20025;-79
2022/11/15 06:26:25;;;;;;;6.90;3.00;;;15.30;82.80;;;;;;5050290;28;20488;-80
2022/11/15 06:28:51;;;;;;;7.63;3.40;;;15.40;83.60;;;;;;5059231;28;20025;-80
2022/11/15 06:31:16;;;;;;;8.27;3.10;;;15.60;83.90;;;;;;5049054;28;20024;-83
2022/11/15 06:33:42;;;;;;;5.13;2.80;;;15.60;83.80;;;;;;5050298;28;20638;-78
2022/11/15 06:36:10;;;;;;;6.40;3.10;;;15.70;83.70;;;;;;5049613;28;20033;-80
2022/11/15 06:38:36;;;;;;;6.13;3.00;;;15.80;83.90;;;;;;5047501;28;20080;-78
2022/11/15 06:41:07;;;;;;;6.20;3.10;;;15.90;84.00;;;;;;5046338;28;20124;-78
2022/11/15 06:43:33;;;;;;;9.27;3.58;;;15.90;83.70;;;;;;5047152;28;20144;-79
2022/11/15 06:45:59;;;;;;;9.63;3.55;;;16.00;84.20;;;;;;5046416;28;20025;-78
2022/11/15 06:48:26;;;;;;;11.70;3.70;;;16.00;83.60;;;;;;5047805;28;20099;-80
2022/11/15 06:50:53;;;;;;;7.28;3.47;;;16.10;83.70;;;;;;5046080;28;20165;-79
2022/11/15 06:53:19;;;;;;;7.18;3.20;;;16.10;83.50;;;;;;5045303;28;20120;-77
2022/11/15 06:55:44;;;;;;;6.82;3.55;;;16.20;83.30;;;;;;5045723;28;20120;-78
2022/11/15 06:58:10;;;;;;;9.45;3.33;;;16.20;83.90;;;;;;5045312;28;20453;-79
2022/11/15 07:00:35;;;;;;;7.47;3.05;;;16.30;83.20;;;;;;5045153;28;20441;-78
2022/11/15 07:03:01;;;;;;;9.75;3.78;;;16.30;83.00;;;;;;5045694;28;20025;-79
2022/11/15 07:05:27;;;;;;;9.80;3.13;;;16.40;82.80;;;;;;5046790;28;20044;-78
2022/11/15 07:07:54;;;;;;;8.68;3.10;;;16.40;82.50;;;;;;5048394;28;20033;-78
2022/11/15 07:10:21;;;;;;;6.95;2.95;;;16.40;82.30;;;;;;5046496;28;20033;-78
2022/11/15 07:12:48;;;;;;;6.47;3.03;;;16.30;82.40;;;;;;5047551;28;20021;-78
2022/11/15 07:15:15;;;;;;;7.90;3.00;;;16.30;82.50;;;;;;5048722;28;20488;-78
2022/11/15 07:17:40;;;;;;;7.78;3.03;;;16.20;82.70;;;;;;5048838;28;20492;-78
2022/11/15 07:20:06;;;;;;;9.43;3.65;;;16.20;82.90;;;;;;5047370;28;20039;-79
2022/11/15 07:22:32;;;;;;;9.93;3.40;;;16.00;82.70;;;;;;5046088;28;20099;-78
2022/11/15 07:24:57;;;;;;;10.07;3.30;;;16.00;83.20;;;;;;5045686;28;20448;-79
2022/11/15 07:27:23;;;;;;;8.65;3.17;;;15.90;83.10;;;;;;5046760;28;20033;-79
2022/11/15 07:29:48;;;;;;;7.90;2.97;;;16.00;83.00;;;;;;5045662;28;20749;-79
2022/11/15 07:32:14;;;;;;;6.57;2.85;;;15.90;83.00;;;;;;5044977;28;20394;-78
2022/11/15 07:34:40;;;;;;;6.28;2.88;;;15.90;82.90;;;;;;5045170;28;20028;-80
2022/11/15 07:37:05;;;;;;;7.10;3.10;;;15.90;82.90;;;;;;5045377;28;20488;-79
2022/11/15 07:39:31;;;;;;;6.95;3.20;;;15.90;82.80;;;;;;5046262;28;20032;-79
2022/11/15 07:42:52;;;;;;;10.10;3.08;;;15.90;82.80;;;;;;5044735;28;20040;-79
2022/11/15 07:44:42;;;;;;;7.70;3.25;;;15.90;82.70;;;;;;5048079;28;20021;-81
2022/11/15 07:47:07;;;;;;;8.32;3.10;;;15.90;82.90;;;;;;5049765;28;20036;-82
2022/11/15 07:49:33;;;;;;;8.60;3.05;;;15.90;83.00;;;;;;5048822;28;20033;-81
2022/11/15 07:51:58;;;;;;;6.45;3.10;;;15.80;83.00;;;;;;5048538;28;20027;-82
2022/11/15 07:54:24;;;;;;;4.72;2.63;;;15.80;83.10;;;;;;5050060;28;20325;-80
2022/11/15 07:56:49;;;;;;;7.57;3.13;;;15.70;83.00;;;;;;5049051;28;20480;-79
2022/11/15 07:59:15;;;;;;;6.82;2.90;;;15.80;83.20;;;;;;5047783;28;20789;-80
2022/11/15 08:01:40;;;;;;;6.68;3.15;;;15.70;83.10;;;;;;5046965;28;20280;-81
2022/11/15 08:04:06;;;;;;;8.00;3.40;;;15.70;83.20;;;;;;5047767;28;20025;-81
2022/11/15 08:06:31;;;;;;;6.55;2.67;;;15.70;83.20;;;;;;5048541;28;20041;-80
2022/11/15 08:08:57;;;;;;;6.75;2.83;;;15.70;83.20;;;;;;5048836;28;20025;-80
2022/11/15 08:11:22;;;;;;;6.93;3.10;;;15.60;83.20;;;;;;5046641;28;20492;-79
2022/11/15 08:13:48;;;;;;;5.90;2.78;;;15.70;83.20;;;;;;5046597;28;20033;-81
2022/11/15 08:16:13;;;;;;;7.18;2.78;;;15.60;83.10;;;;;;5046038;28;20036;-81
2022/11/15 08:18:39;;;;;;;5.68;2.53;;;15.60;83.20;;;;;;5046074;28;20040;-81
2022/11/15 08:21:04;;;;;;;5.88;2.90;;;15.60;83.00;;;;;;5045708;28;20029;-79
2022/11/15 08:23:30;;;;;;;5.43;2.58;;;15.60;83.20;;;;;;5045805;28;20025;-80
2022/11/15 08:26:03;;;;;;;6.38;2.50;;;15.60;83.20;;;;;;5045738;28;20032;-78
2022/11/15 08:28:29;;;;;;;6.22;2.60;;;15.60;83.20;;;;;;5047221;28;20443;-78
2022/11/15 08:30:55;;;;;;;8.32;2.83;;;15.40;83.10;;;;;;5045730;28;20036;-81
2022/11/15 08:33:21;;;;;;;7.00;2.80;;;15.60;83.00;;;;;;5045491;28;20029;-80
2022/11/15 08:35:46;;;;;;;5.00;2.47;;;15.60;83.00;;;;;;5045446;28;20029;-80
2022/11/15 08:38:12;;;;;;;9.35;3.03;;;15.70;83.00;;;;;;5045250;28;20072;-80
2022/11/15 08:40:37;;;;;;;6.78;2.72;;;15.60;82.80;;;;;;5046523;28;20112;-80
2022/11/15 08:43:03;;;;;;;7.68;2.75;;;15.70;82.60;;;;;;5045390;28;20051;-80
2022/11/15 08:45:30;;;;;;;5.35;2.60;;;15.70;82.40;;;;;;5045432;28;20119;-80
2022/11/15 08:47:56;;;;;;;6.40;2.85;;;15.70;82.40;;;;;;5045059;28;20069;-81
2022/11/15 08:50:21;;;;;;;5.75;2.70;;;15.70;82.40;;;;;;5044905;28;20064;-79
2022/11/15 08:52:48;;;;;;;5.88;2.65;;;15.70;82.40;;;;;;5045474;28;20044;-82
2022/11/15 08:55:14;;;;;;;6.13;2.40;;;15.70;82.30;;;;;;5044675;28;20087;-80
2022/11/15 08:57:39;;;;;;;5.93;2.60;;;15.90;82.50;;;;;;5046390;28;20037;-80
2022/11/15 09:00:06;;;;;;;7.97;2.80;;;15.80;82.10;;;;;;5044808;28;20404;-80
2022/11/15 09:02:31;;;;;;;6.07;2.67;;;15.80;82.20;;;;;;5045888;28;20036;-80
2022/11/15 09:04:57;;;;;;;6.97;2.92;;;15.80;82.20;;;;;;5046150;28;20025;-80
2022/11/15 09:07:22;;;;;;;5.93;2.75;;;15.80;82.10;;;;;;5047049;28;20025;-80
2022/11/15 09:09:48;;;;;;;5.80;2.90;;;15.90;82.20;;;;;;5049522;28;20029;-82
2022/11/15 09:12:14;;;;;;;5.53;2.50;;;15.80;82.20;;;;;;5048009;28;20039;-81
2022/11/15 09:14:39;;;;;;;4.80;2.50;;;15.70;82.30;;;;;;5048018;28;20063;-80
2022/11/15 09:17:08;;;;;;;5.60;2.60;;;15.80;82.40;;;;;;5048479;28;20021;-81
2022/11/15 09:19:34;;;;;;;5.43;2.83;;;15.80;82.50;;;;;;5047950;28;20119;-79
2022/11/15 09:21:59;;;;;;;5.28;2.20;;;15.80;82.30;;;;;;5047716;28;20124;-81
2022/11/15 09:24:25;;;;;;;6.07;2.25;;;15.90;82.40;;;;;;5047900;28;20051;-79
2022/11/15 09:26:51;;;;;;;4.97;2.45;;;15.90;82.20;;;;;;5049265;28;20017;-80
2022/11/15 09:29:17;;;;;;;4.25;1.98;;;15.90;82.00;;;;;;5047610;28;20017;-79
2022/11/15 09:31:43;;;;;;;4.30;2.20;;;15.90;82.00;;;;;;5045764;28;20048;-80
2022/11/15 09:34:09;;;;;;;4.30;2.20;;;15.90;81.90;;;;;;5046443;28;20480;-80
2022/11/15 09:36:34;;;;;;;4.75;2.30;;;15.90;81.80;;;;;;5047524;28;20094;-79
2022/11/15 09:39:00;;;;;;;3.85;2.13;;;15.90;81.80;;;;;;5048656;28;20029;-80
2022/11/15 09:41:51;;;;;;;4.85;2.20;;;16.00;81.90;;;;;;5046019;28;20344;-81
2022/11/15 09:44:29;;;;;;;3.75;2.00;;;16.00;81.60;;;;;;5048839;28;20562;-79
2022/11/15 09:47:09;;;;;;;5.45;2.25;;;16.00;81.50;;;;;;5048817;28;20628;-81
2022/11/15 09:49:35;;;;;;;5.05;1.95;;;16.10;81.30;;;;;;5047314;28;20033;-79
2022/11/15 09:52:00;;;;;;;5.47;2.10;;;16.10;81.30;;;;;;5046819;28;20055;-80
2022/11/15 09:54:31;;;;;;;4.03;2.25;;;16.10;81.10;;;;;;5046934;28;20021;-79
2022/11/15 09:57:06;;;;;;;4.90;2.03;;;16.20;80.80;;;;;;5047618;28;20025;-79
2022/11/15 10:00:13;;;;;;;5.05;1.92;;;16.20;80.70;;;;;;5047073;28;20734;-82
2022/11/15 10:03:08;;;;;;;4.85;2.20;;;16.20;80.70;;;;;;5048540;28;20036;-81
2022/11/15 10:05:42;;;;;;;3.88;2.03;;;16.20;80.50;;;;;;5046855;28;20029;-79
2022/11/15 10:08:53;;;;;;;4.43;1.90;;;16.20;80.60;;;;;;5047025;28;20025;-79
2022/11/15 10:11:25;;;;;;;4.90;2.05;;;16.20;80.60;;;;;;5043036;28;20522;-79
2022/11/15 10:13:55;;;;;;;4.63;2.10;;;16.10;80.60;;;;;;5047134;28;20187;-78
2022/11/15 10:16:46;;;;;;;3.72;1.92;;;16.10;80.70;;;;;;5047548;28;20048;-79
2022/11/15 10:19:37;;;;;;;3.70;1.88;;;16.10;80.70;;;;;;5062998;28;20120;-79
2022/11/15 10:22:26;;;;;;;3.58;1.95;;;16.20;80.70;;;;;;5047914;28;20067;-81
2022/11/15 10:25:02;;;;;;;3.42;1.98;;;16.20;80.70;;;;;;5050461;28;20029;-81
2022/11/15 10:27:29;;;;;;;4.25;2.03;;;16.20;80.70;;;;;;5050519;28;20052;-80
2022/11/15 10:29:55;;;;;;;2.63;1.70;;;16.10;80.60;;;;;;5051089;28;20029;-81
2022/11/15 10:32:21;;;;;;;3.42;1.70;;;16.10;80.60;;;;;;5049050;28;20550;-81
2022/11/15 10:34:48;;;;;;;3.38;1.80;;;16.10;80.70;;;;;;5049185;28;20438;-81
2022/11/15 10:37:14;;;;;;;3.70;1.90;;;16.10;80.60;;;;;;5048317;28;20025;-80
2022/11/15 10:39:40;;;;;;;3.08;1.70;;;16.10;80.60;;;;;;5049174;28;20435;-79
2022/11/15 10:42:26;;;;;;;3.95;1.73;;;16.10;80.60;;;;;;5048002;28;20411;-79
2022/11/15 10:44:53;;;;;;;4.03;1.70;;;16.10;80.60;;;;;;5048333;28;20029;-80
2022/11/15 10:47:27;;;;;;;3.58;1.85;;;16.30;80.90;;;;;;5048107;28;20465;-81
2022/11/15 10:50:03;;;;;;;3.72;1.80;;;16.20;80.90;;;;;;5047876;28;20025;-79
2022/11/15 10:52:31;;;;;;;3.53;1.70;;;16.30;80.50;;;;;;5047344;28;20036;-79
2022/11/15 10:55:05;;;;;;;2.90;1.50;;;16.30;80.10;;;;;;5047106;28;20040;-79
2022/11/15 10:57:33;;;;;;;3.38;1.70;;;16.40;80.10;;;;;;5047292;28;20032;-79
2022/11/15 11:00:25;;;;;;;3.85;2.15;;;16.40;79.70;;;;;;5047089;28;20098;-81
2022/11/15 11:03:00;;;;;;;3.15;1.63;;;16.40;79.60;;;;;;5047273;28;20017;-78
2022/11/15 11:05:33;;;;;;;2.95;1.50;;;16.50;79.20;;;;;;5046991;28;20028;-80
2022/11/15 11:08:04;;;;;;;4.45;2.00;;;16.50;79.30;;;;;;5048337;28;20570;-78
2022/11/15 11:10:30;;;;;;;3.70;1.75;;;16.50;79.30;;;;;;5047417;28;20029;-79
2022/11/15 11:13:11;;;;;;;2.30;1.45;;;16.50;79.30;;;;;;5048524;28;20032;-80
2022/11/15 11:15:37;;;;;;;2.80;1.63;;;16.50;79.40;;;;;;5047717;28;20092;-80
2022/11/15 11:18:27;;;;;;;2.83;1.60;;;16.50;79.50;;;;;;5046060;28;20463;-80
2022/11/15 11:21:00;;;;;;;2.63;1.50;;;16.50;79.40;;;;;;5045866;28;20255;-79
2022/11/15 11:23:49;;;;;;;3.42;1.70;;;16.40;79.40;;;;;;5045614;28;20028;-79
2022/11/15 11:26:18;;;;;;;3.40;1.50;;;16.40;79.50;;;;;;5047786;28;20029;-81
2022/11/15 11:28:46;;;;;;;2.90;1.70;;;16.40;79.50;;;;;;5047160;28;20040;-80
2022/11/15 11:31:31;;;;;;;3.08;1.40;;;16.40;79.70;;;;;;5044851;28;20024;-80
2022/11/15 11:34:16;;;;;;;2.45;1.48;;;16.30;79.60;;;;;;5046184;28;20389;-81
2022/11/15 11:37:19;;;;;;;2.47;1.42;;;16.40;80.00;;;;;;5045952;28;20036;-80
2022/11/15 11:40:14;;;;;;;4.28;1.50;;;16.40;80.20;;;;;;5047374;28;20542;-79
2022/11/15 11:43:11;;;;;;;2.47;1.30;;;16.40;80.70;;;;;;5046589;28;20089;-80
2022/11/15 11:45:53;;;;;;;2.38;1.48;;;16.40;80.30;;;;;;5040003;28;20163;-80
2022/11/15 11:48:41;;;;;;;2.25;1.40;;;16.40;80.60;;;;;;5025396;28;20077;-79
2022/11/15 11:51:36;;;;;;;2.50;1.50;;;16.50;80.60;;;;;;5027450;28;20036;-81
2022/11/15 11:54:19;;;;;;;4.03;1.77;;;16.50;80.20;;;;;;5035893;28;20124;-79
2022/11/15 11:56:45;;;;;;;2.53;1.48;;;16.50;80.00;;;;;;5046340;28;20061;-79
2022/11/15 11:59:43;;;;;;;2.22;1.40;;;16.50;79.50;;;;;;5044967;28;20063;-79
2022/11/15 12:02:23;;;;;;;2.03;1.40;;;16.60;79.60;;;;;;5044899;28;20028;-86
2022/11/15 12:04:52;;;;;;;2.25;1.30;;;16.60;79.10;;;;;;5045220;28;20031;-84
2022/11/15 12:07:32;;;;;;;2.55;1.42;;;16.60;79.10;;;;;;5045023;28;20472;-86
2022/11/15 12:10:25;;;;;;;2.78;1.30;;;16.60;78.90;;;;;;5045170;28;20043;-85
2022/11/15 12:13:16;;;;;;;2.35;1.30;;;16.70;79.00;;;;;;5044283;28;20044;-85
2022/11/15 12:15:56;;;;;;;;;;;16.60;78.70;;;;;;5045858;28;20033;-84
2022/11/15 12:18:22;;;;;;;2.75;1.42;;;16.60;78.70;;;;;;5046246;28;19958;-83
2022/11/15 12:20:59;;;;;;;2.45;1.50;;;16.60;79.00;;;;;;5044994;28;20032;-85
2022/11/15 12:23:30;;;;;;;1.77;1.20;;;16.60;79.20;;;;;;5045926;28;20059;-86
2022/11/15 12:26:14;;;;;;;2.58;1.30;;;16.60;79.00;;;;;;5044954;28;20029;-83
2022/11/15 12:29:11;;;;;;;2.00;1.30;;;16.60;79.00;;;;;;5047357;28;20407;-84
2022/11/15 12:31:41;;;;;;;3.13;1.40;;;16.60;79.00;;;;;;5027537;28;20029;-84
2022/11/15 12:34:28;;;;;;;2.10;1.10;;;16.60;79.10;;;;;;5047577;28;20033;-83
2022/11/15 12:36:54;;;;;;;2.88;1.40;;;16.60;79.00;;;;;;5047947;28;20022;-83
2022/11/15 12:39:20;;;;;;;2.63;1.30;;;16.60;79.00;;;;;;5042505;28;20036;-85
2022/11/15 12:41:55;;;;;;;2.13;1.27;;;16.60;79.00;;;;;;5047070;28;20025;-85
2022/11/15 12:44:37;;;;;;;1.60;1.00;;;16.60;79.10;;;;;;5049765;28;20033;-86
2022/11/15 12:47:08;;;;;;;2.22;1.33;;;16.60;79.30;;;;;;5047804;28;20021;-85
2022/11/15 12:49:37;;;;;;;2.35;1.30;;;16.50;79.10;;;;;;5049298;28;20385;-88
2022/11/15 12:52:03;;;;;;;2.08;1.20;;;16.50;79.50;;;;;;5052822;28;20511;-83
2022/11/15 12:54:32;;;;;;;2.03;1.30;;;16.50;79.40;;;;;;5052317;28;20082;-84
2022/11/15 12:57:03;;;;;;;2.03;1.20;;;16.50;79.30;;;;;;5052123;28;20180;-81
2022/11/15 12:59:48;;;;;;;;;;;16.50;79.80;;;;;;5054145;28;20025;-81
2022/11/15 13:02:23;;;;;;;2.00;1.25;;;16.40;79.80;;;;;;5052937;28;19917;-82
2022/11/15 13:04:50;;;;;;;1.60;1.17;;;16.50;80.30;;;;;;5052009;28;20379;-81
2022/11/15 13:07:40;;;;;;;3.28;1.40;;;16.40;79.80;;;;;;5053077;28;20032;-82
2022/11/15 13:10:11;;;;;;;1.95;1.20;;;16.50;79.70;;;;;;5051473;28;20032;-82
2022/11/15 13:12:46;;;;;;;2.50;1.40;;;16.50;79.50;;;;;;5051004;28;20028;-81
2022/11/15 13:15:11;;;;;;;1.85;1.30;;;16.50;79.50;;;;;;5052204;28;20079;-81
2022/11/15 13:17:40;;;;;;;1.98;1.27;;;16.50;79.40;;;;;;5052202;28;20044;-84